createdAt,value
2019-05-06T00:01:57.719Z,47.13
2019-05-06T00:07:01.540Z,44.67
2019-05-06T00:12:05.487Z,46.97
2019-05-06T00:17:09.872Z,42.83
2019-05-06T00:22:14.184Z,42.10
2019-05-06T00:27:19.700Z,41.20
2019-05-06T00:32:24.331Z,41.40
2019-05-06T00:37:28.166Z,41.37
2019-05-06T00:42:34.721Z,44.33
2019-05-06T00:47:38.603Z,43.28
2019-05-06T00:52:42.250Z,43.17
2019-05-06T00:57:46.083Z,41.10
2019-05-06T01:02:49.671Z,40.70
2019-05-06T01:07:54.913Z,40.60
2019-05-06T01:13:06.513Z,40.33
2019-05-06T01:18:10.230Z,40.17
2019-05-06T01:23:14.422Z,39.63
2019-05-06T01:28:18.103Z,41.70
2019-05-06T01:33:21.679Z,39.03
2019-05-06T01:38:26.968Z,40.07
2019-05-06T01:43:38.231Z,40.03
2019-05-06T01:48:48.201Z,39.77
2019-05-06T01:53:54.161Z,40.05
2019-05-06T01:58:57.332Z,40.23
2019-05-06T02:04:00.997Z,39.60
2019-05-06T02:09:08.556Z,38.90
2019-05-06T02:19:14.969Z,38.83
2019-05-06T02:24:29.395Z,40.10
2019-05-06T02:29:37.515Z,39.13
2019-05-06T02:34:58.978Z,38.23
2019-05-06T02:40:04.252Z,37.53
2019-05-06T02:45:08.803Z,38.50
2019-05-06T02:50:14.298Z,37.88
2019-05-06T02:55:17.937Z,38.03
2019-05-06T03:00:23.887Z,38.58
2019-05-06T03:05:27.040Z,38.33
2019-05-06T03:10:32.902Z,38.45
2019-05-06T03:15:36.036Z,38.20
2019-05-06T03:20:58.161Z,38.10
2019-05-06T03:26:05.815Z,38.43
2019-05-06T03:31:08.281Z,36.60
2019-05-06T03:36:18.484Z,37.97
2019-05-06T03:41:17.420Z,37.83
2019-05-06T03:46:39.031Z,37.83
2019-05-06T03:51:43.021Z,37.17
2019-05-06T03:56:48.008Z,37.13
2019-05-06T04:01:53.484Z,37.30
2019-05-06T04:06:57.501Z,37.90
2019-05-06T04:12:03.520Z,38.42
2019-05-06T04:17:13.056Z,39.93
2019-05-06T04:22:23.647Z,41.53
2019-05-06T04:27:37.259Z,51.87
2019-05-06T04:32:43.484Z,45.67
2019-05-06T04:37:46.271Z,47.53
2019-05-06T04:42:52.534Z,53.00
2019-05-06T04:47:55.557Z,46.47
2019-05-06T04:53:04.772Z,47.03
2019-05-06T04:58:08.743Z,54.43
2019-05-06T05:03:14.070Z,53.83
2019-05-06T05:08:18.096Z,51.73
2019-05-06T05:13:26.185Z,52.27
2019-05-06T05:18:37.615Z,52.70
2019-05-06T05:23:42.824Z,51.73
2019-05-06T05:28:46.635Z,52.07
2019-05-06T05:33:52.458Z,51.93
2019-05-06T05:38:55.683Z,52.03
2019-05-06T05:44:02.435Z,53.53
2019-05-06T05:49:12.035Z,52.23
2019-05-06T05:54:16.018Z,53.17
2019-05-06T05:59:20.256Z,52.33
2019-05-06T06:04:24.474Z,53.63
2019-05-06T06:09:29.850Z,51.40
2019-05-06T06:14:43.181Z,50.67
2019-05-06T06:19:53.947Z,50.30
2019-05-06T06:24:57.702Z,50.83
2019-05-06T06:30:02.398Z,50.77
2019-05-06T06:35:14.209Z,50.67
2019-05-06T06:40:18.432Z,50.12
2019-05-06T06:45:23.062Z,49.13
2019-05-06T06:50:27.471Z,48.95
2019-05-06T06:55:31.869Z,49.20
2019-05-06T07:00:39.866Z,49.20
2019-05-06T07:05:45.221Z,48.97
2019-05-06T07:10:48.887Z,48.97
2019-05-06T07:15:52.531Z,48.93
2019-05-06T07:20:58.192Z,48.45
2019-05-06T07:26:03.067Z,49.13
2019-05-06T07:31:18.641Z,49.07
2019-05-06T07:36:13.082Z,49.13
2019-05-06T07:41:23.491Z,49.97
2019-05-06T07:46:42.709Z,49.43
2019-05-06T07:51:46.252Z,51.13
2019-05-06T07:56:52.447Z,49.57
2019-05-06T08:01:55.455Z,49.70
2019-05-06T08:06:59.120Z,49.83
2019-05-06T08:12:02.931Z,50.63
2019-05-06T08:17:08.275Z,51.03
2019-05-06T08:22:16.440Z,51.30
2019-05-06T08:27:20.127Z,52.60
2019-05-06T08:32:23.721Z,50.93
2019-05-06T08:37:34.864Z,50.87
2019-05-06T08:42:38.579Z,51.23
2019-05-06T08:47:42.755Z,51.50
2019-05-06T08:52:56.888Z,50.37
2019-05-06T08:58:02.751Z,51.40
2019-05-06T09:03:06.072Z,52.30
2019-05-06T09:08:09.723Z,51.70
2019-05-06T09:13:13.283Z,53.12
2019-05-06T09:18:17.182Z,49.90
2019-05-06T09:23:22.644Z,53.17
2019-05-06T09:28:30.339Z,51.13
2019-05-06T09:33:35.515Z,50.57
2019-05-06T09:38:39.071Z,50.90
2019-05-06T09:43:43.297Z,50.43
2019-05-06T09:49:03.119Z,49.90
2019-05-06T09:54:12.905Z,49.83
2019-05-06T09:59:16.800Z,49.73
2019-05-06T10:04:20.455Z,49.07
2019-05-06T10:09:24.883Z,50.30
2019-05-06T10:14:29.110Z,49.87
2019-05-06T10:19:32.875Z,49.30
2019-05-06T10:24:36.637Z,50.07
2019-05-06T10:29:43.205Z,49.73
2019-05-06T10:34:47.245Z,49.10
2019-05-06T10:40:13.459Z,49.17
2019-05-06T10:45:20.139Z,49.57
2019-05-06T10:50:25.046Z,49.77
2019-05-06T10:55:28.832Z,50.70
2019-05-06T11:00:33.321Z,49.75
2019-05-06T11:05:36.932Z,50.20
2019-05-06T11:10:45.151Z,50.38
2019-05-06T11:15:46.882Z,49.27
2019-05-06T11:20:52.978Z,49.23
2019-05-06T11:25:55.934Z,48.45
2019-05-06T11:31:02.495Z,49.10
2019-05-06T11:36:08.115Z,54.77
2019-05-06T11:50:33.414Z,47.67
2019-05-06T11:55:38.738Z,48.20
2019-05-06T12:00:45.155Z,48.00
2019-05-06T12:05:48.835Z,47.80
2019-05-06T12:10:52.472Z,47.85
2019-05-06T12:15:56.071Z,48.10
2019-05-06T12:21:09.176Z,47.90
2019-05-06T12:26:05.288Z,48.40
2019-05-06T12:31:09.103Z,47.85
2019-05-06T12:36:15.390Z,48.43
2019-05-06T12:41:18.971Z,48.10
2019-05-06T12:46:24.204Z,47.97
2019-05-06T12:51:27.871Z,48.60
2019-05-06T12:56:31.698Z,48.50
2019-05-06T13:01:35.481Z,48.70
2019-05-06T13:06:39.252Z,47.73
2019-05-06T13:11:43.307Z,48.03
2019-05-06T13:16:47.128Z,47.57
2019-05-06T13:21:50.704Z,47.60
2019-05-06T13:26:54.383Z,48.20
2019-05-06T13:31:58.103Z,48.07
2019-05-06T13:37:01.862Z,49.17
2019-05-06T13:42:05.625Z,49.17
2019-05-06T13:47:12.125Z,48.70
2019-05-06T13:52:16.931Z,49.43
2019-05-06T13:57:20.896Z,48.77
2019-05-06T14:02:29.019Z,49.07
2019-05-06T14:07:34.609Z,50.00
2019-05-06T14:12:37.945Z,49.27
2019-05-06T14:17:42.347Z,49.50
2019-05-06T14:22:46.389Z,49.50
2019-05-06T14:27:52.587Z,50.60
2019-05-06T14:32:56.461Z,49.77
2019-05-06T14:38:00.044Z,49.70
2019-05-06T14:43:05.185Z,50.27
2019-05-06T14:48:09.228Z,49.80
2019-05-06T14:53:14.192Z,51.07
2019-05-06T14:58:17.848Z,49.83
2019-05-06T15:03:22.135Z,50.07
2019-05-06T15:08:26.161Z,49.57
2019-05-06T15:13:31.999Z,48.97
2019-05-06T15:18:34.943Z,50.20
2019-05-06T15:23:38.533Z,50.07
2019-05-06T15:28:42.698Z,49.43
2019-05-06T15:33:53.873Z,50.00
2019-05-06T15:38:57.707Z,49.43
2019-05-06T15:44:03.062Z,50.20
2019-05-06T15:49:06.929Z,48.77
2019-05-06T15:54:10.552Z,49.60
2019-05-06T15:59:14.228Z,48.27
2019-05-06T16:04:17.939Z,49.83
2019-05-06T16:09:23.467Z,49.77
2019-05-06T16:14:26.817Z,49.13
2019-05-06T16:19:30.490Z,48.90
2019-05-06T16:24:38.722Z,48.77
2019-05-06T16:29:42.875Z,48.33
2019-05-06T16:34:46.751Z,49.97
2019-05-06T16:39:52.450Z,47.67
2019-05-06T16:44:55.916Z,48.00
2019-05-06T16:49:59.672Z,48.33
2019-05-06T16:55:05.595Z,49.87
2019-05-06T17:00:11.281Z,48.17
2019-05-06T17:05:16.980Z,50.93
2019-05-06T17:10:22.775Z,48.92
2019-05-06T17:15:26.398Z,48.17
2019-05-06T17:20:32.558Z,48.44
2019-05-06T17:25:35.714Z,50.83
2019-05-06T17:30:43.445Z,49.15
2019-05-06T17:35:47.084Z,49.30
2019-05-06T17:40:52.377Z,48.50
2019-05-06T17:46:02.362Z,47.27
2019-05-06T17:51:14.070Z,46.75
2019-05-06T17:56:22.272Z,47.60
2019-05-06T18:01:33.633Z,48.43
2019-05-06T18:06:37.333Z,47.17
2019-05-06T18:11:42.443Z,46.73
2019-05-06T18:16:46.346Z,47.37
2019-05-06T18:21:49.979Z,46.90
2019-05-06T18:26:54.042Z,47.10
2019-05-06T18:31:57.798Z,46.03
2019-05-06T18:37:03.232Z,46.97
2019-05-06T18:42:18.769Z,47.20
2019-05-06T18:47:12.770Z,46.67
2019-05-06T18:52:16.580Z,48.30
2019-05-06T18:57:22.571Z,47.33
2019-05-06T19:02:26.886Z,49.80
2019-05-06T19:07:33.262Z,48.57
2019-05-06T19:12:41.121Z,46.07
2019-05-06T19:17:44.371Z,46.87
2019-05-06T19:22:48.039Z,47.10
2019-05-06T19:27:53.068Z,46.57
2019-05-06T19:32:56.910Z,46.60
2019-05-06T19:38:04.786Z,46.57
2019-05-06T19:43:06.037Z,46.97
2019-05-06T19:48:09.785Z,46.17
2019-05-06T19:53:13.437Z,48.47
2019-05-06T19:58:17.193Z,47.00
2019-05-06T20:03:23.098Z,45.30
2019-05-06T20:08:32.568Z,45.00
2019-05-06T20:13:36.435Z,45.00
2019-05-06T20:18:42.417Z,45.87
2019-05-06T20:23:45.583Z,44.83
2019-05-06T20:28:49.307Z,53.10
2019-05-06T20:33:53.135Z,48.07
2019-05-06T20:38:56.791Z,46.13
2019-05-06T20:44:02.277Z,47.40
2019-05-06T20:49:05.733Z,46.00
2019-05-06T20:54:09.595Z,46.03
2019-05-06T20:59:13.216Z,47.73
2019-05-06T21:04:16.768Z,45.83
2019-05-06T21:09:20.451Z,46.27
2019-05-06T21:14:24.036Z,44.50
2019-05-06T21:19:27.612Z,44.90
2019-05-06T21:24:32.213Z,45.07
2019-05-06T21:29:36.896Z,44.87
2019-05-06T21:34:40.496Z,46.23
2019-05-06T21:39:44.085Z,50.57
2019-05-06T21:44:47.734Z,52.10
2019-05-06T21:49:52.873Z,52.93
2019-05-06T21:54:56.569Z,51.00
2019-05-06T22:00:02.491Z,46.57
2019-05-06T22:05:08.003Z,45.13
2019-05-06T22:10:12.165Z,46.87
2019-05-06T22:15:15.893Z,49.03
2019-05-06T22:20:23.615Z,56.77
2019-05-06T22:25:25.125Z,51.43
2019-05-06T22:30:28.960Z,68.33
2019-05-06T22:35:32.586Z,53.00
2019-05-06T22:40:36.213Z,50.58
2019-05-06T22:45:39.780Z,53.03
2019-05-06T22:50:43.355Z,52.43
2019-05-06T22:55:47.097Z,51.80
2019-05-06T23:00:53.699Z,52.45
2019-05-06T23:11:01.175Z,51.65
2019-05-06T23:16:04.976Z,49.70
2019-05-06T23:21:08.528Z,49.67
2019-05-06T23:26:19.884Z,49.73
2019-05-06T23:31:24.484Z,47.23
2019-05-06T23:36:31.392Z,48.07
2019-05-06T23:42:12.120Z,49.73
2019-05-06T23:47:53.115Z,49.03
2019-05-06T23:53:33.460Z,47.65
2019-05-06T23:58:37.139Z,47.67
